Time;durP1;ratioP1;P1;durP2;ratioP2;P2;SDS_P1;SDS_P2;PMS_P1;PMS_P2;Temp;Humidity;BMP_temperature;BMP_pressure;BME280_temperature;BME280_humidity;BME280_pressure;Samples;Min_cycle;Max_cycle;Signal;HPM_P1;HPM_P2
2023/08/18 00:00:06;;;;;;;19.13;10.23;;;;;;;17.08;100.00;101091.75;5982551;29;20046;-95
2023/08/18 00:03:09;;;;;;;16.83;10.85;;;;;;;17.06;100.00;101094.53;5982555;29;20061;-94
2023/08/18 00:06:13;;;;;;;18.67;10.98;;;;;;;17.06;100.00;101091.91;5971625;29;20043;-95
2023/08/18 00:09:16;;;;;;;15.40;10.20;;;;;;;17.04;100.00;101086.00;5985595;29;20074;-95
2023/08/18 00:12:26;;;;;;;17.75;11.35;;;;;;;17.05;100.00;101085.03;5978985;29;20057;-95
2023/08/18 00:15:36;;;;;;;22.40;11.70;;;;;;;17.03;100.00;101075.69;5960493;29;20062;-95
2023/08/18 00:18:39;;;;;;;17.60;11.25;;;;;;;17.04;100.00;101069.47;5962442;29;20050;-95
2023/08/18 00:21:43;;;;;;;15.77;10.77;;;;;;;17.05;100.00;101060.69;5981331;29;20042;-95
2023/08/18 00:24:45;;;;;;;20.15;10.82;;;;;;;17.05;100.00;101071.16;5978418;29;20058;-94
2023/08/18 00:27:48;;;;;;;17.73;11.18;;;;;;;17.04;100.00;101059.84;5983472;29;20088;-95
2023/08/18 00:31:06;;;;;;;15.88;10.95;;;;;;;17.01;100.00;101047.06;5983865;29;20121;-95
2023/08/18 00:34:09;;;;;;;17.35;12.23;;;;;;;17.01;100.00;101041.84;5970396;29;20520;-95
2023/08/18 00:37:13;;;;;;;18.17;11.77;;;;;;;16.95;100.00;101043.28;5970001;29;20045;-95
2023/08/18 00:40:17;;;;;;;17.05;10.98;;;;;;;16.92;100.00;101048.00;5972115;29;20081;-94
2023/08/18 00:43:19;;;;;;;23.58;13.20;;;;;;;16.90;100.00;101045.50;5978677;29;20046;-95
2023/08/18 00:46:21;;;;;;;22.23;12.60;;;;;;;16.87;100.00;101051.06;5976278;29;20050;-94
2023/08/18 00:49:24;;;;;;;18.95;12.88;;;;;;;16.91;100.00;101056.78;5989831;29;20822;-94
2023/08/18 00:52:31;;;;;;;22.98;13.93;;;;;;;16.90;100.00;101045.50;5967962;29;20062;-95
2023/08/18 00:55:36;;;;;;;23.30;12.38;;;;;;;16.93;100.00;101044.41;5979563;29;20045;-94
2023/08/18 00:58:39;;;;;;;22.63;12.60;;;;;;;16.91;100.00;101044.53;5959092;29;20054;-95
2023/08/18 01:01:42;;;;;;;24.85;13.23;;;;;;;16.89;100.00;101051.69;5976455;29;20042;-95
2023/08/18 01:04:48;;;;;;;24.42;12.73;;;;;;;16.86;100.00;101036.31;5986449;29;20060;-95
2023/08/18 01:07:53;;;;;;;28.42;14.20;;;;;;;16.82;100.00;101036.75;5965044;29;20050;-94
2023/08/18 01:11:40;;;;;;;24.08;13.35;;;;;;;16.80;100.00;101036.94;5972711;29;20516;-95
2023/08/18 01:15:55;;;;;;;23.42;13.77;;;;;;;16.79;100.00;101037.88;5930195;29;20176;-94
2023/08/18 01:19:03;;;;;;;24.63;13.23;;;;;;;16.79;100.00;101035.25;5956441;29;20101;-94
2023/08/18 01:22:11;;;;;;;23.90;13.98;;;;;;;16.82;100.00;101028.91;5978534;29;20054;-95
2023/08/18 01:25:18;;;;;;;22.33;13.82;;;;;;;16.86;100.00;101043.34;5978962;29;20073;-95
2023/08/18 01:28:22;;;;;;;23.88;12.88;;;;;;;16.84;100.00;101035.63;5972154;29;20049;-94
2023/08/18 01:31:51;;;;;;;21.13;12.60;;;;;;;16.86;100.00;101040.72;5965102;29;20073;-95
2023/08/18 01:35:01;;;;;;;24.00;12.55;;;;;;;16.85;100.00;101037.28;5994210;29;20638;-95
2023/08/18 01:38:11;;;;;;;25.13;13.07;;;;;;;16.89;100.00;101051.69;5954331;29;20621;-94
2023/08/18 01:41:17;;;;;;;23.77;13.00;;;;;;;16.88;100.00;101050.06;5981309;29;20455;-94
2023/08/18 01:44:19;;;;;;;24.13;12.15;;;;;;;16.91;100.00;101046.31;5990215;29;20043;-93
2023/08/18 01:47:24;;;;;;;21.33;12.02;;;;;;;16.90;100.00;101040.28;5981622;29;20046;-94
2023/08/18 01:50:27;;;;;;;17.98;12.27;;;;;;;16.90;100.00;101042.09;5968591;29;20083;-93
2023/08/18 01:53:30;;;;;;;21.60;12.63;;;;;;;16.86;100.00;101036.31;5978706;29;20055;-94
2023/08/18 01:56:36;;;;;;;18.50;11.18;;;;;;;16.90;100.00;101034.25;5984523;29;20056;-94
2023/08/18 01:59:38;;;;;;;22.83;12.10;;;;;;;16.90;100.00;101027.22;5985209;29;20558;-95
2023/08/18 02:02:42;;;;;;;22.45;13.30;;;;;;;16.91;100.00;101035.88;5955319;29;20539;-95
2023/08/18 02:06:31;;;;;;;24.20;12.82;;;;;;;16.90;100.00;101035.06;5957288;29;20047;-95
2023/08/18 02:09:51;;;;;;;21.38;12.35;;;;;;;16.92;100.00;101037.53;5945470;29;20547;-94
2023/08/18 02:12:58;;;;;;;21.77;13.55;;;;;;;16.94;100.00;101030.34;5973517;29;20510;-94
2023/08/18 02:16:02;;;;;;;22.65;13.15;;;;;;;16.92;100.00;101025.28;5957646;29;20051;-95
2023/08/18 02:19:13;;;;;;;25.52;13.20;;;;;;;16.92;100.00;101024.44;5954712;29;20073;-95
2023/08/18 02:22:23;;;;;;;23.98;12.93;;;;;;;16.93;100.00;101019.06;5982944;29;20100;-95
2023/08/18 02:25:31;;;;;;;22.77;12.85;;;;;;;16.91;100.00;101013.16;5969344;29;20082;-95
2023/08/18 02:28:37;;;;;;;24.38;13.73;;;;;;;16.92;100.00;101016.59;5978481;29;20117;-95
2023/08/18 02:31:42;;;;;;;26.05;13.57;;;;;;;16.93;100.00;101019.06;5984916;29;20042;-95
2023/08/18 02:34:57;;;;;;;22.67;12.73;;;;;;;16.92;100.00;101012.19;5970425;29;20145;-95
2023/08/18 02:38:27;;;;;;;26.00;13.32;;;;;;;16.92;100.00;101004.34;5947420;29;20111;-95
2023/08/18 02:41:51;;;;;;;22.27;13.57;;;;;;;16.92;100.00;100999.13;5971153;29;20043;-94
2023/08/18 02:45:14;;;;;;;;;;;;;;;16.95;100.00;100998.81;5977228;29;20402;-95
2023/08/18 02:48:29;;;;;;;23.90;13.65;;;;;;;16.94;100.00;100991.09;5981716;29;19940;-95
2023/08/18 02:51:33;;;;;;;22.67;13.27;;;;;;;16.92;100.00;100983.44;5975435;29;20059;-95
2023/08/18 02:54:50;;;;;;;23.42;13.15;;;;;;;16.91;100.00;100987.00;5985551;29;20065;-95
2023/08/18 02:58:01;;;;;;;24.70;13.68;;;;;;;16.91;100.00;100986.19;5967152;29;20050;-96
2023/08/18 03:01:11;;;;;;;23.83;13.07;;;;;;;16.91;100.00;100988.78;5966091;29;20059;-94
2023/08/18 03:04:14;;;;;;;19.98;13.30;;;;;;;16.92;100.00;100983.44;5967059;29;20085;-95
2023/08/18 03:07:22;;;;;;;22.42;12.75;;;;;;;16.91;100.00;100981.75;5982768;29;20482;-96
2023/08/18 03:10:42;;;;;;;25.90;14.02;;;;;;;16.92;100.00;100988.66;5961756;29;20050;-95
2023/08/18 03:13:52;;;;;;;24.00;12.57;;;;;;;16.90;100.00;100985.38;5982435;29;20053;-95
2023/08/18 03:16:54;;;;;;;22.23;13.80;;;;;;;16.92;100.00;100990.47;5981124;29;20098;-94
2023/08/18 03:19:57;;;;;;;19.30;12.27;;;;;;;16.93;100.00;100995.53;5983728;29;20039;-95
2023/08/18 03:22:59;;;;;;;20.95;12.75;;;;;;;16.93;100.00;100985.06;5975137;29;20055;-95
2023/08/18 03:26:17;;;;;;;22.52;12.90;;;;;;;16.95;100.00;100982.31;5981293;29;20485;-94
2023/08/18 03:29:32;;;;;;;23.23;12.75;;;;;;;16.97;100.00;100982.97;5969019;29;20645;-94
2023/08/18 03:32:47;;;;;;;26.63;14.57;;;;;;;16.98;100.00;100990.66;5982257;29;20047;-94
2023/08/18 03:35:58;;;;;;;33.15;17.30;;;;;;;17.00;100.00;100985.28;5974343;29;20046;-94
2023/08/18 03:39:06;;;;;;;31.02;15.65;;;;;;;17.01;100.00;100989.53;5970483;29;20039;-95
2023/08/18 03:42:37;;;;;;;31.85;15.18;;;;;;;16.98;100.00;100982.00;5977422;29;20197;-95
2023/08/18 03:46:26;;;;;;;27.70;14.80;;;;;;;16.99;100.00;100984.47;5906805;30;20126;-95
2023/08/18 03:50:11;;;;;;;31.33;16.38;;;;;;;16.98;100.00;100984.59;5894103;30;20139;-94
2023/08/18 03:53:17;;;;;;;28.33;15.85;;;;;;;16.97;100.00;100985.59;5894379;30;20056;-95
2023/08/18 03:56:23;;;;;;;30.63;16.35;;;;;;;16.95;100.00;100990.97;5928059;29;20058;-95
2023/08/18 03:59:45;;;;;;;38.40;18.85;;;;;;;16.98;100.00;100998.50;5947520;29;20124;-95
2023/08/18 04:03:01;;;;;;;36.40;16.70;;;;;;;16.96;100.00;100994.41;5954287;29;20054;-94
2023/08/18 04:06:37;;;;;;;34.60;16.70;;;;;;;16.97;100.00;100989.03;5944755;29;20059;-95
2023/08/18 04:10:03;;;;;;;33.33;16.40;;;;;;;16.96;100.00;100992.59;5956947;29;20506;-96
2023/08/18 04:13:30;;;;;;;;;;;;;;;;;;;;;
2023/08/18 04:17:07;;;;;;;38.65;17.77;;;;;;;16.98;100.00;100997.69;5986519;29;20031;-96
2023/08/18 04:20:53;;;;;;;29.35;16.20;;;;;;;17.00;100.00;100998.34;5969292;29;20155;-95
2023/08/18 04:24:24;;;;;;;36.67;17.08;;;;;;;16.99;100.00;100994.09;5972213;29;20182;-95
2023/08/18 04:27:32;;;;;;;26.20;15.68;;;;;;;17.00;100.00;100995.75;5958141;29;20054;-95
2023/08/18 04:30:51;;;;;;;30.15;16.52;;;;;;;17.01;100.00;101005.22;5982068;29;20050;-95
2023/08/18 04:34:17;;;;;;;28.10;15.52;;;;;;;17.01;100.00;101000.81;5964919;29;20054;-95
2023/08/18 04:37:44;;;;;;;30.50;15.02;;;;;;;17.01;100.00;100995.56;5968289;29;20050;-95
2023/08/18 04:41:45;;;;;;;26.05;15.05;;;;;;;17.03;100.00;100998.06;5949696;29;20058;-95
2023/08/18 04:45:39;;;;;;;25.15;14.30;;;;;;;17.04;100.00;100997.06;5933545;29;20108;-95
2023/08/18 04:48:55;;;;;;;25.42;13.77;;;;;;;17.03;100.00;100994.63;5946505;29;20061;-95
2023/08/18 04:52:15;;;;;;;25.52;12.73;;;;;;;17.06;100.00;100991.69;5956189;29;20480;-95
2023/08/18 04:55:40;;;;;;;22.65;12.63;;;;;;;17.10;100.00;100990.44;5946311;29;20046;-95
2023/08/18 04:58:56;;;;;;;23.10;12.68;;;;;;;17.15;100.00;100996.84;5933962;29;20074;-95
2023/08/18 05:02:03;;;;;;;21.35;13.00;;;;;;;17.18;100.00;100993.91;5947586;29;20042;-95
2023/08/18 05:05:33;;;;;;;26.15;13.93;;;;;;;17.21;100.00;100984.94;5929086;29;20202;-96
2023/08/18 05:08:41;;;;;;;25.80;13.10;;;;;;;17.24;100.00;100992.47;5939202;29;20055;-95
2023/08/18 05:11:47;;;;;;;25.20;13.55;;;;;;;17.31;100.00;100987.44;5939786;29;20062;-94
2023/08/18 05:15:29;;;;;;;;;;;;;;;;;;;;;
2023/08/18 05:24:12;;;;;;;25.08;12.48;;;;;;;17.50;100.00;100989.06;5936230;29;20145;-95
2023/08/18 05:27:54;;;;;;;20.17;12.15;;;;;;;17.56;100.00;100993.66;5943582;29;20050;-95
2023/08/18 05:32:29;;;;;;;25.60;12.65;;;;;;;17.66;100.00;100989.13;5946460;29;20082;-95
2023/08/18 05:40:02;;;;;;;21.13;13.10;;;;;;;17.82;100.00;100975.34;2494271;27;20059;-95
2023/08/18 05:48:24;;;;;;;;;;;;;;;;;;;;;
2023/08/18 05:52:26;;;;;;;21.20;12.95;;;;;;;18.18;100.00;100965.44;5809377;30;20157;-95
2023/08/18 05:56:36;;;;;;;24.90;14.40;;;;;;;18.17;100.00;100974.31;5799992;30;20092;-95
2023/08/18 06:00:26;;;;;;;22.15;14.10;;;;;;;18.21;100.00;100977.41;5789616;30;20062;-95
2023/08/18 06:04:58;;;;;;;22.88;13.98;;;;;;;18.29;100.00;100970.41;5801281;30;20053;-96
2023/08/18 06:15:02;;;;;;;;;;;;;;;;;;;;;
2023/08/18 06:19:23;;;;;;;25.88;14.38;;;;;;;18.59;100.00;100977.81;5752546;30;20062;-95
2023/08/18 06:28:24;;;;;;;21.83;14.38;;;;;;;18.88;100.00;100964.25;5954357;29;20399;-96
2023/08/18 06:32:54;;;;;;;22.30;13.75;;;;;;;19.13;100.00;100970.31;5959892;29;20081;-96
2023/08/18 06:37:44;;;;;;;22.42;13.13;;;;;;;19.51;100.00;100974.00;6016009;24;20752;-96
2023/08/18 06:58:13;;;;;;;;;;;;;;;;;;;;;
2023/08/18 07:02:32;;;;;;;23.95;15.23;;;;;;;19.70;100.00;100940.44;5881884;30;20052;-96
2023/08/18 07:07:09;;;;;;;19.58;13.35;;;;;;;19.68;100.00;100947.72;5812412;30;20092;-96
2023/08/18 07:12:12;;;;;;;;;;;;;;;;;;;;;
2023/08/18 07:16:16;;;;;;;21.92;15.13;;;;;;;19.72;100.00;100943.72;5877621;30;20418;-96
2023/08/18 07:30:17;;;;;;;;;;;;;;;;;;;;;
2023/08/18 07:34:04;;;;;;;20.85;15.20;;;;;;;20.28;100.00;100933.09;5847041;30;20146;-96
2023/08/18 07:37:20;;;;;;;23.58;15.88;;;;;;;20.52;100.00;100932.09;5897294;30;20063;-96
2023/08/18 07:41:39;;;;;;;23.77;15.98;;;;;;;20.81;100.00;100928.75;5886018;30;20236;-96
2023/08/18 07:45:29;;;;;;;22.67;16.25;;;;;;;20.95;100.00;100929.78;5892501;30;20067;-96
2023/08/18 07:49:35;;;;;;;20.50;15.40;;;;;;;21.10;100.00;100925.34;5872351;30;20053;-96
2023/08/18 07:53:15;;;;;;;22.23;16.55;;;;;;;21.23;100.00;100930.78;5871543;30;20607;-96
2023/08/18 07:56:43;;;;;;;23.25;16.00;;;;;;;21.49;100.00;100921.66;5894302;30;20446;-96
2023/08/18 07:59:50;;;;;;;22.20;15.75;;;;;;;21.68;100.00;100915.81;5909643;30;20354;-96
2023/08/18 08:03:20;;;;;;;19.53;15.40;;;;;;;21.78;100.00;100915.50;5893878;30;20068;-96
2023/08/18 08:06:49;;;;;;;21.55;16.20;;;;;;;21.91;100.00;100917.47;5956978;29;20065;-96
2023/08/18 08:10:08;;;;;;;22.08;17.23;;;;;;;22.15;100.00;100913.69;5926171;29;20066;-96
2023/08/18 08:13:19;;;;;;;22.67;16.55;;;;;;;22.38;100.00;100910.06;5951333;29;20055;-96
2023/08/18 08:16:22;;;;;;;20.35;14.43;;;;;;;22.47;100.00;100909.75;5955058;29;20062;-96
2023/08/18 08:19:25;;;;;;;22.17;15.10;;;;;;;22.52;100.00;100909.19;5941473;29;20051;-96
2023/08/18 08:22:27;;;;;;;21.38;16.08;;;;;;;22.52;100.00;100915.28;5957244;29;20051;-96
2023/08/18 08:25:30;;;;;;;20.90;16.42;;;;;;;22.55;100.00;100909.59;5946376;29;20055;-96
2023/08/18 08:28:33;;;;;;;19.05;15.10;;;;;;;22.48;100.00;100914.00;5960258;29;20039;-96
2023/08/18 08:31:37;;;;;;;21.30;15.75;;;;;;;22.37;100.00;100914.53;5963974;29;20211;-96
2023/08/18 08:34:48;;;;;;;19.20;14.60;;;;;;;22.07;100.00;100911.97;5946062;29;20050;-96
2023/08/18 08:37:56;;;;;;;20.50;15.27;;;;;;;21.78;100.00;100910.25;5963080;29;20065;-96
2023/08/18 08:41:00;;;;;;;20.88;15.95;;;;;;;21.55;100.00;100914.84;5960707;29;20047;-96
2023/08/18 08:44:05;;;;;;;20.88;14.98;;;;;;;21.40;100.00;100918.31;5963855;29;20042;-96
2023/08/18 08:47:10;;;;;;;19.17;14.85;;;;;;;21.28;100.00;100919.72;5955340;29;20131;-96
2023/08/18 08:50:22;;;;;;;17.98;14.02;;;;;;;21.26;100.00;100919.88;5949762;29;20043;-96
2023/08/18 08:53:33;;;;;;;21.60;14.80;;;;;;;21.27;100.00;100921.53;5955334;29;20053;-96
2023/08/18 08:56:37;;;;;;;23.13;15.90;;;;;;;21.27;100.00;100921.53;5950455;29;20051;-95
2023/08/18 08:59:39;;;;;;;20.92;15.57;;;;;;;21.32;100.00;100926.28;5944625;29;20049;-95
2023/08/18 09:02:48;;;;;;;20.90;15.27;;;;;;;21.38;100.00;100920.25;5961813;29;20625;-94
2023/08/18 09:05:56;;;;;;;19.65;14.63;;;;;;;21.40;100.00;100918.31;5946397;29;20046;-95
2023/08/18 09:08:59;;;;;;;20.80;14.90;;;;;;;21.49;100.00;100919.03;5948933;29;20058;-95
2023/08/18 09:12:07;;;;;;;19.67;14.85;;;;;;;21.54;100.00;100916.66;5951579;29;20050;-95
2023/08/18 09:15:09;;;;;;;20.13;15.23;;;;;;;21.58;100.00;100904.75;5946802;29;20054;-94
2023/08/18 09:18:14;;;;;;;21.23;16.77;;;;;;;21.82;100.00;100902.81;5949767;29;20192;-95
2023/08/18 09:21:19;;;;;;;18.50;14.45;;;;;;;21.90;100.00;100895.59;5959965;29;20057;-95
2023/08/18 09:24:21;;;;;;;18.02;14.65;;;;;;;21.87;100.00;100893.31;5948295;29;20430;-95
2023/08/18 09:27:23;;;;;;;17.10;13.13;;;;;;;21.86;100.00;100891.69;5957875;29;20176;-95
2023/08/18 09:30:25;;;;;;;19.15;14.18;;;;;;;21.89;100.00;100901.06;5956866;29;20051;-93
2023/08/18 09:33:27;;;;;;;18.40;13.60;;;;;;;21.92;100.00;100887.50;5958784;29;20457;-94
2023/08/18 09:36:35;;;;;;;17.77;13.50;;;;;;;21.99;100.00;100875.22;5953081;29;20621;-94
2023/08/18 09:39:36;;;;;;;18.23;13.20;;;;;;;22.09;100.00;100883.63;5955748;29;20070;-94
2023/08/18 09:42:41;;;;;;;17.30;13.07;;;;;;;22.18;100.00;100875.56;5951218;29;20193;-93
2023/08/18 09:45:43;;;;;;;16.42;13.10;;;;;;;22.26;100.00;100873.66;5945806;29;20058;-94
2023/08/18 09:48:47;;;;;;;18.35;13.63;;;;;;;22.38;100.00;100866.03;5953305;29;20059;-93
2023/08/18 09:51:52;;;;;;;20.85;13.23;;;;;;;22.42;100.00;100872.56;5953683;29;20195;-94
2023/08/18 09:55:20;;;;;;;17.27;13.02;;;;;;;22.50;100.00;100858.41;5949898;29;20063;-93
2023/08/18 09:58:28;;;;;;;16.98;13.18;;;;;;;22.55;100.00;100859.47;5964562;29;20697;-94
2023/08/18 10:01:35;;;;;;;19.30;13.77;;;;;;;22.68;100.00;100864.06;5951700;29;20043;-94
2023/08/18 10:04:41;;;;;;;17.65;12.82;;;;;;;22.76;100.00;100855.16;5950494;29;20148;-94
2023/08/18 10:07:45;;;;;;;17.50;13.23;;;;;;;22.91;100.00;100857.69;5965209;29;20051;-94
2023/08/18 10:10:47;;;;;;;17.85;12.52;;;;;;;23.05;100.00;100854.13;5946861;29;20046;-93
2023/08/18 10:13:51;;;;;;;17.75;12.23;;;;;;;23.14;100.00;100849.50;5946099;29;20113;-93
2023/08/18 10:16:55;;;;;;;19.38;13.73;;;;;;;23.31;100.00;100847.38;5956978;29;20047;-93
2023/08/18 10:20:04;;;;;;;14.07;11.35;;;;;;;23.33;100.00;100846.16;5954812;29;20076;-93
2023/08/18 10:23:06;;;;;;;17.17;12.13;;;;;;;23.31;100.00;100844.72;5950844;29;20161;-93
2023/08/18 10:26:08;;;;;;;18.17;11.90;;;;;;;23.30;100.00;100840.44;5959868;29;20035;-93
2023/08/18 10:29:14;;;;;;;15.55;12.63;;;;;;;23.36;100.00;100835.19;5953579;29;20034;-93
2023/08/18 10:32:36;;;;;;;15.07;12.00;;;;;;;23.56;100.00;100842.38;5950520;29;20108;-93
2023/08/18 10:35:41;;;;;;;16.02;12.07;;;;;;;23.67;100.00;100831.19;5961438;29;20050;-93
2023/08/18 10:38:43;;;;;;;16.33;12.07;;;;;;;23.72;100.00;100827.97;5953846;29;20445;-93
2023/08/18 10:42:05;;;;;;;15.02;12.25;;;;;;;23.80;100.00;100831.28;5946576;29;20047;-94
2023/08/18 10:45:28;;;;;;;17.08;12.25;;;;;;;23.98;100.00;100840.44;5948759;29;20592;-92
2023/08/18 10:48:34;;;;;;;16.80;11.60;;;;;;;24.03;100.00;100830.06;5958971;29;20081;-93
2023/08/18 10:51:35;;;;;;;15.63;12.45;;;;;;;24.06;100.00;100825.19;5938322;29;20522;-93
2023/08/18 10:54:38;;;;;;;15.18;12.15;;;;;;;24.16;100.00;100829.25;5946909;29;20131;-92
2023/08/18 10:57:40;;;;;;;15.80;11.82;;;;;;;24.29;100.00;100816.84;5957311;29;20127;-92
2023/08/18 11:00:43;;;;;;;16.17;11.27;;;;;;;24.44;100.00;100827.19;5956306;29;20615;-91
2023/08/18 11:03:45;;;;;;;13.30;11.30;;;;;;;24.53;100.00;100819.91;5946080;29;20046;-92
2023/08/18 11:06:47;;;;;;;13.48;11.13;;;;;;;24.58;100.00;100814.00;5959529;29;20524;-92
2023/08/18 11:09:49;;;;;;;14.55;11.25;;;;;;;24.52;100.00;100814.81;5963862;29;20055;-92
2023/08/18 11:12:54;;;;;;;14.38;11.13;;;;;;;24.63;100.00;100808.91;5958190;29;20136;-92
2023/08/18 11:15:57;;;;;;;12.00;10.07;;;;;;;25.02;100.00;100800.03;5958012;29;20521;-92
2023/08/18 11:19:01;;;;;;;11.52;10.15;;;;;;;25.40;100.00;100796.63;5954891;29;20412;-92
2023/08/18 11:22:04;;;;;;;11.40;9.93;;;;;;;25.65;100.00;100788.72;5970401;29;20084;-92
2023/08/18 11:25:08;;;;;;;10.50;9.43;;;;;;;25.69;100.00;100786.44;5955530;29;20599;-92
2023/08/18 11:28:12;;;;;;;10.82;9.38;;;;;;;25.67;100.00;100785.84;5952862;29;20126;-92
2023/08/18 11:31:14;;;;;;;11.93;9.90;;;;;;;25.63;100.00;100779.34;5942085;29;20081;-92
2023/08/18 11:34:16;;;;;;;11.10;10.00;;;;;;;25.54;100.00;100774.31;5951625;29;20350;-92
2023/08/18 11:37:23;;;;;;;12.43;9.48;;;;;;;25.56;100.00;100774.91;5947190;29;20604;-92
2023/08/18 11:40:25;;;;;;;10.07;9.15;;;;;;;25.56;100.00;100769.59;5940991;29;20159;-92
2023/08/18 11:43:27;;;;;;;12.23;9.40;;;;;;;25.46;100.00;100765.78;5941669;29;20122;-92
2023/08/18 11:46:30;;;;;;;10.93;9.80;;;;;;;25.63;100.00;100763.44;5949123;29;20047;-93
2023/08/18 11:49:33;;;;;;;11.85;10.25;;;;;;;25.69;100.00;100767.88;5951577;29;20098;-92
2023/08/18 11:52:46;;;;;;;11.23;9.68;;;;;;;25.89;100.00;100757.16;5955554;29;20039;-91
2023/08/18 11:55:49;;;;;;;10.45;9.45;;;;;;;26.06;100.00;100750.28;5944915;29;20047;-91
2023/08/18 11:58:52;;;;;;;10.00;9.00;;;;;;;26.25;100.00;100752.94;5950828;29;20047;-91
2023/08/18 12:01:59;;;;;;;9.73;8.48;;;;;;;26.44;100.00;100759.91;5945779;29;20046;-91
2023/08/18 12:05:05;;;;;;;9.52;8.63;;;;;;;26.59;100.00;100759.56;5946477;29;20055;-91
2023/08/18 12:08:09;;;;;;;9.48;8.07;;;;;;;26.72;100.00;100755.94;5959792;29;20057;-90
2023/08/18 12:11:11;;;;;;;8.55;7.57;;;;;;;26.83;100.00;100748.06;5963000;29;20047;-91
2023/08/18 12:14:14;;;;;;;9.10;8.20;;;;;;;26.66;100.00;100746.19;5957636;29;20768;-90
2023/08/18 12:17:15;;;;;;;9.77;8.50;;;;;;;26.66;100.00;100754.16;5957876;29;20051;-90
2023/08/18 12:20:24;;;;;;;10.15;8.20;;;;;;;26.67;100.00;100746.00;5959479;29;20046;-90
2023/08/18 12:23:26;;;;;;;9.25;8.35;;;;;;;26.85;100.00;100739.84;5947159;29;20054;-90
2023/08/18 12:26:28;;;;;;;9.20;8.40;;;;;;;27.23;100.00;100742.25;5952417;29;20051;-90
2023/08/18 12:29:30;;;;;;;9.05;8.00;;;;;;;27.75;100.00;100738.16;5957218;29;20117;-90
2023/08/18 12:32:32;;;;;;;9.52;8.70;;;;;;;28.03;100.00;100735.69;5954472;29;20253;-90
2023/08/18 12:35:35;;;;;;;10.00;8.20;;;;;;;27.84;100.00;100734.16;5954975;29;20481;-90
2023/08/18 12:38:37;;;;;;;10.63;8.88;;;;;;;27.98;100.00;100727.59;5946988;29;20565;-90
2023/08/18 12:41:39;;;;;;;8.38;7.68;;;;;;;28.48;100.00;100729.75;5953956;29;20107;-90
2023/08/18 12:44:41;;;;;;;8.23;7.40;;;;;;;28.91;100.00;100735.66;5970180;29;20088;-90
2023/08/18 12:47:43;;;;;;;11.30;8.13;;;;;;;29.20;100.00;100731.94;5954994;29;20058;-90
2023/08/18 12:50:45;;;;;;;8.52;7.72;;;;;;;29.23;100.00;100730.66;5942820;29;20038;-90
2023/08/18 12:53:47;;;;;;;9.85;8.68;;;;;;;29.22;100.00;100723.72;5957119;29;20050;-89
2023/08/18 12:56:49;;;;;;;9.50;8.48;;;;;;;29.28;100.00;100725.41;5956789;29;20047;-89
2023/08/18 12:59:51;;;;;;;9.48;8.50;;;;;;;29.36;100.00;100717.00;5939546;29;20468;-89
2023/08/18 13:02:53;;;;;;;8.80;7.93;;;;;;;29.44;100.00;100720.34;5953921;29;20159;-89
2023/08/18 13:05:55;;;;;;;7.90;7.10;;;;;;;29.55;100.00;100712.25;5950489;29;20544;-89
2023/08/18 13:08:56;;;;;;;7.35;6.65;;;;;;;29.62;100.00;100722.78;5954958;29;20050;-89
2023/08/18 13:11:58;;;;;;;8.85;8.00;;;;;;;29.76;100.00;100712.59;5953208;29;20059;-89
2023/08/18 13:15:01;;;;;;;8.23;7.43;;;;;;;29.91;100.00;100717.34;5956426;29;20051;-90
2023/08/18 13:18:03;;;;;;;8.85;7.95;;;;;;;30.06;100.00;100714.88;5956880;29;20783;-89
2023/08/18 13:21:05;;;;;;;8.80;7.82;;;;;;;30.23;100.00;100720.19;5956701;29;20038;-89
2023/08/18 13:24:07;;;;;;;8.98;8.00;;;;;;;30.41;100.00;100713.78;5942899;29;20035;-89
2023/08/18 13:27:09;;;;;;;8.75;7.95;;;;;;;30.53;100.00;100714.44;5963728;29;20468;-89
2023/08/18 13:30:12;;;;;;;8.73;7.93;;;;;;;30.38;100.00;100706.25;5967765;29;20083;-89
2023/08/18 13:33:14;;;;;;;10.75;8.13;;;;;;;30.53;100.00;100709.09;5952945;29;20551;-90
2023/08/18 13:36:16;;;;;;;9.07;7.75;;;;;;;30.68;100.00;100708.47;5958105;29;20058;-89
2023/08/18 13:39:19;;;;;;;8.68;7.88;;;;;;;30.81;100.00;100699.28;5951810;29;20252;-90
2023/08/18 13:42:23;;;;;;;8.50;7.60;;;;;;;30.85;100.00;100703.88;5955326;29;20176;-90
2023/08/18 13:45:25;;;;;;;7.90;7.20;;;;;;;30.50;100.00;100703.47;5960998;29;20044;-90
2023/08/18 13:48:27;;;;;;;8.27;7.55;;;;;;;30.65;100.00;100698.28;5948084;29;20553;-89
2023/08/18 13:51:29;;;;;;;8.57;7.70;;;;;;;30.92;100.00;100695.66;5936468;29;20113;-89
2023/08/18 13:54:31;;;;;;;8.75;7.95;;;;;;;31.06;100.00;100694.19;5948295;29;20493;-89
2023/08/18 13:57:33;;;;;;;8.82;8.02;;;;;;;31.23;100.00;100693.25;5958012;29;20783;-89
2023/08/18 14:00:36;;;;;;;8.98;8.07;;;;;;;31.30;100.00;100694.69;5952160;29;20129;-89
2023/08/18 14:03:37;;;;;;;8.43;7.70;;;;;;;31.47;100.00;100693.75;5940057;29;20296;-89
2023/08/18 14:06:39;;;;;;;8.43;7.43;;;;;;;31.56;100.00;100692.22;5936012;29;20459;-89
2023/08/18 14:09:41;;;;;;;8.75;7.85;;;;;;;31.75;100.00;100685.41;5947047;29;20476;-89
2023/08/18 14:12:51;;;;;;;9.15;7.47;;;;;;;31.67;100.00;100693.88;5960382;29;20058;-90
2023/08/18 14:15:53;;;;;;;7.82;7.13;;;;;;;30.77;100.00;100690.13;5959304;29;20047;-90
2023/08/18 14:18:55;;;;;;;7.88;7.07;;;;;;;30.57;100.00;100688.84;5958364;29;20046;-90
2023/08/18 14:21:57;;;;;;;7.72;7.03;;;;;;;31.01;100.00;100680.78;5945094;29;20054;-90
2023/08/18 14:24:58;;;;;;;7.65;6.95;;;;;;;31.42;100.00;100678.47;5957203;29;20077;-90
2023/08/18 14:28:00;;;;;;;8.43;7.63;;;;;;;31.66;100.00;100667.41;5957068;29;20047;-90
2023/08/18 14:31:07;;;;;;;8.13;7.32;;;;;;;31.73;100.00;100670.66;5964816;29;20061;-90
2023/08/18 14:34:09;;;;;;;8.27;7.43;;;;;;;31.84;100.00;100671.50;5954432;29;20062;-90
2023/08/18 14:37:11;;;;;;;7.90;7.20;;;;;;;31.96;100.00;100675.63;5949877;29;20059;-90
2023/08/18 14:40:13;;;;;;;8.65;7.80;;;;;;;32.11;100.00;100666.06;5959565;29;20057;-90
2023/08/18 14:43:15;;;;;;;7.93;7.20;;;;;;;32.26;100.00;100668.78;5940192;29;20494;-90
2023/08/18 14:46:18;;;;;;;8.20;7.40;;;;;;;32.49;100.00;100664.06;5938178;29;20048;-90
2023/08/18 14:49:20;;;;;;;9.15;7.45;;;;;;;32.68;100.00;100670.56;5956285;29;20414;-90
2023/08/18 14:52:23;;;;;;;10.85;7.35;;;;;;;32.27;100.00;100669.59;5960036;29;20517;-91
2023/08/18 14:55:26;;;;;;;8.20;7.32;;;;;;;32.03;100.00;100664.69;5959953;29;20077;-90
2023/08/18 14:58:28;;;;;;;8.35;7.65;;;;;;;32.22;100.00;100666.91;5959490;29;20409;-90
2023/08/18 15:01:32;;;;;;;8.98;7.85;;;;;;;32.43;100.00;100662.44;5960840;29;20050;-90
2023/08/18 15:04:34;;;;;;;8.00;7.20;;;;;;;32.58;100.00;100657.13;5937560;29;20121;-90
2023/08/18 15:07:36;;;;;;;12.63;7.47;;;;;;;32.75;100.00;100660.38;5961300;29;20417;-90
2023/08/18 15:10:39;;;;;;;7.20;6.60;;;;;;;33.00;100.00;100659.59;5954115;29;20052;-90
2023/08/18 15:13:42;;;;;;;8.00;7.25;;;;;;;33.12;100.00;100658.53;5954874;29;20050;-89
2023/08/18 15:16:44;;;;;;;8.73;7.40;;;;;;;33.17;100.00;100650.50;5957925;29;20562;-89
2023/08/18 15:19:46;;;;;;;7.70;6.97;;;;;;;33.08;100.00;100646.75;5959036;29;20077;-89
2023/08/18 15:22:48;;;;;;;7.65;6.95;;;;;;;32.96;100.00;100644.31;5956162;29;20126;-89
2023/08/18 15:25:50;;;;;;;7.40;6.57;;;;;;;32.86;100.00;100637.06;5957297;29;20144;-90
2023/08/18 15:28:52;;;;;;;7.10;6.45;;;;;;;32.80;100.00;100636.25;5959129;29;20494;-89
2023/08/18 15:31:53;;;;;;;8.13;7.32;;;;;;;32.82;100.00;100646.72;5955901;29;20110;-90
2023/08/18 15:34:55;;;;;;;7.68;6.95;;;;;;;32.96;100.00;100636.25;5958349;29;20646;-89
2023/08/18 15:37:57;;;;;;;7.70;6.38;;;;;;;33.05;100.00;100633.88;5953861;29;20187;-90